Current Weather

Avalon

Avalon, Australia (YMAV)

Report from: Sunday, February 25, 2024 2:00 AM UTC
Current time: Sunday, February 25, 2024 2:19 AM UTC

Nearby weather – Weather history – Daily summaries
Weather forecast

Temperature29.0°C (84.2°F)
Heat index28.3°C (82.9°F)
Dew point11.0°C (51.8°F)
Winds 6 kts (3.1 m/s, 6.9 mph) Vrb
Winds variableWinds variable from East (100°) to West-Southwest (240°)
Visibility6.2 mi. (10 km)
Clouds Sky clear
Altimeter29.91 in.Hg (1013 mB)
Relative humidity33 %
Density altitude1,803 ft. (550 m)
Remarks Fully automated report
No clouds detected
Flight conditions Visual Meteorological Conditions
Raw dataYMAV 250200Z AUTO 17006KT 100V240 9999 // NCD 29/11 Q1013 RF00.0/000.0
An error has occurred. This application may no longer respond until reloaded. Reload 🗙